createdAt,value
2017-05-18T00:02:15.375Z,6.20
2017-05-18T00:04:43.583Z,6.37
2017-05-18T00:07:11.811Z,6.85
2017-05-18T00:09:40.007Z,6.80
2017-05-18T00:12:08.210Z,6.12
2017-05-18T00:14:36.430Z,6.74
2017-05-18T00:17:04.635Z,6.82
2017-05-18T00:19:32.851Z,7.32
2017-05-18T00:22:01.068Z,6.77
2017-05-18T00:24:29.262Z,6.98
2017-05-18T00:26:57.463Z,6.60
2017-05-18T00:29:25.692Z,6.68
2017-05-18T00:31:53.890Z,7.12
2017-05-18T00:34:22.090Z,7.80
2017-05-18T00:36:50.303Z,6.90
2017-05-18T00:39:18.499Z,7.27
2017-05-18T00:41:46.703Z,7.08
2017-05-18T00:44:14.911Z,7.98
2017-05-18T00:46:43.116Z,7.38
2017-05-18T00:49:11.306Z,6.58
2017-05-18T00:51:39.523Z,7.00
2017-05-18T00:54:07.717Z,7.40
2017-05-18T00:56:35.915Z,7.53
2017-05-18T00:59:04.122Z,7.40
2017-05-18T01:01:32.354Z,7.73
2017-05-18T01:04:00.558Z,7.57
2017-05-18T01:06:28.767Z,7.65
2017-05-18T01:08:56.979Z,7.25
2017-05-18T01:11:25.187Z,7.93
2017-05-18T01:13:53.415Z,7.57
2017-05-18T01:16:21.603Z,7.32
2017-05-18T01:18:49.804Z,7.78
2017-05-18T01:21:18.028Z,7.84
2017-05-18T01:23:46.223Z,8.08
2017-05-18T01:26:14.418Z,7.60
2017-05-18T01:28:42.634Z,7.74
2017-05-18T01:31:10.845Z,7.60
2017-05-18T01:33:39.035Z,7.92
2017-05-18T01:36:07.255Z,7.94
2017-05-18T01:38:35.445Z,7.82
2017-05-18T01:41:02.875Z,8.22
2017-05-18T01:43:31.108Z,8.60
2017-05-18T01:45:59.299Z,8.37
2017-05-18T01:48:27.495Z,8.62
2017-05-18T01:50:55.719Z,8.38
2017-05-18T01:53:23.151Z,9.23
2017-05-18T01:55:51.351Z,9.90
2017-05-18T01:58:19.578Z,9.83
2017-05-18T02:00:47.776Z,8.67
2017-05-18T02:03:15.983Z,9.47
2017-05-18T02:05:43.432Z,9.08
2017-05-18T02:08:11.631Z,9.57
2017-05-18T02:10:39.055Z,8.73
2017-05-18T02:13:07.276Z,9.05
2017-05-18T02:15:35.470Z,8.78
2017-05-18T02:18:03.663Z,8.47
2017-05-18T02:20:31.899Z,9.57
2017-05-18T02:23:00.096Z,8.77
2017-05-18T02:25:28.291Z,9.72
2017-05-18T02:27:56.515Z,9.10
2017-05-18T02:30:24.727Z,9.25
2017-05-18T02:32:52.915Z,9.37
2017-05-18T02:35:21.134Z,10.23
2017-05-18T02:37:49.335Z,10.08
2017-05-18T02:40:17.536Z,10.25
2017-05-18T02:42:45.748Z,10.42
2017-05-18T02:45:13.963Z,10.05
2017-05-18T02:47:42.172Z,10.32
2017-05-18T02:50:10.394Z,10.25
2017-05-18T02:52:38.602Z,9.88
2017-05-18T02:55:06.816Z,10.30
2017-05-18T02:57:35.043Z,10.00
2017-05-18T03:00:03.259Z,11.10
2017-05-18T03:02:31.459Z,10.48
2017-05-18T03:04:59.687Z,9.97
2017-05-18T03:07:28.915Z,10.13
2017-05-18T03:09:57.126Z,10.72
2017-05-18T03:12:25.391Z,10.47
2017-05-18T03:14:53.587Z,10.97
2017-05-18T03:17:21.797Z,11.25
2017-05-18T03:19:50.034Z,9.88
2017-05-18T03:22:18.230Z,11.56
2017-05-18T03:24:46.436Z,11.03
2017-05-18T03:27:14.667Z,11.48
2017-05-18T03:29:42.871Z,10.10
2017-05-18T03:32:11.093Z,10.98
2017-05-18T03:34:39.315Z,10.60
2017-05-18T03:37:07.558Z,10.30
2017-05-18T03:39:35.758Z,10.97
2017-05-18T03:42:03.984Z,10.70
2017-05-18T03:44:32.193Z,12.10
2017-05-18T03:47:00.479Z,11.22
2017-05-18T03:49:28.725Z,11.70
2017-05-18T03:51:56.929Z,11.63
2017-05-18T03:54:25.120Z,11.72
2017-05-18T03:56:53.362Z,12.18
2017-05-18T03:59:21.558Z,11.35
2017-05-18T04:01:49.807Z,13.92
2017-05-18T04:04:18.019Z,12.02
2017-05-18T04:06:46.228Z,11.92
2017-05-18T04:09:14.434Z,12.48
2017-05-18T04:11:42.655Z,11.95
2017-05-18T04:14:10.854Z,12.10
2017-05-18T04:16:38.288Z,12.30
2017-05-18T04:19:06.500Z,12.40
2017-05-18T04:21:33.936Z,11.80
2017-05-18T04:24:01.387Z,11.77
2017-05-18T04:26:29.610Z,12.10
2017-05-18T04:28:57.832Z,11.57
2017-05-18T04:31:26.044Z,12.42
2017-05-18T04:33:54.259Z,12.32
2017-05-18T04:36:22.535Z,13.38
2017-05-18T04:38:50.740Z,13.10
2017-05-18T04:41:18.954Z,11.52
2017-05-18T04:43:47.168Z,12.75
2017-05-18T04:46:15.391Z,12.43
2017-05-18T04:48:43.621Z,13.47
2017-05-18T04:51:11.839Z,13.02
2017-05-18T04:53:40.043Z,12.88
2017-05-18T04:56:08.260Z,12.73
2017-05-18T04:58:36.470Z,12.25
2017-05-18T05:01:04.667Z,12.88
2017-05-18T05:03:32.907Z,13.53
2017-05-18T05:06:01.110Z,12.30
2017-05-18T05:08:29.315Z,12.62
2017-05-18T05:10:57.529Z,13.58
2017-05-18T05:13:25.730Z,14.33
2017-05-18T05:15:53.174Z,13.54
2017-05-18T05:18:21.411Z,14.17
2017-05-18T05:20:49.626Z,12.45
2017-05-18T05:23:17.905Z,13.15
2017-05-18T05:25:46.160Z,12.93
2017-05-18T05:28:14.368Z,13.10
2017-05-18T05:30:41.818Z,12.90
2017-05-18T05:33:10.058Z,13.32
2017-05-18T05:35:38.266Z,13.27
2017-05-18T05:38:06.493Z,13.00
2017-05-18T05:40:34.734Z,14.64
2017-05-18T05:43:02.938Z,13.22
2017-05-18T05:45:31.154Z,12.85
2017-05-18T05:47:59.362Z,12.83
2017-05-18T05:50:27.562Z,12.47
2017-05-18T05:52:55.792Z,11.85
2017-05-18T05:55:24.008Z,11.60
2017-05-18T05:57:52.200Z,12.18
2017-05-18T06:00:20.482Z,11.88
2017-05-18T06:02:48.703Z,12.00
2017-05-18T06:05:16.919Z,11.03
2017-05-18T06:07:45.140Z,10.90
2017-05-18T06:10:13.383Z,11.70
2017-05-18T06:12:41.579Z,11.42
2017-05-18T06:15:09.800Z,11.17
2017-05-18T06:17:38.075Z,10.65
2017-05-18T06:20:06.315Z,10.94
2017-05-18T06:22:34.515Z,11.78
2017-05-18T06:25:02.748Z,12.43
2017-05-18T06:27:30.951Z,11.52
2017-05-18T06:29:59.294Z,10.98
2017-05-18T06:32:27.503Z,11.57
2017-05-18T06:34:55.720Z,11.28
2017-05-18T06:37:23.918Z,10.92
2017-05-18T06:39:52.145Z,11.08
2017-05-18T06:42:20.338Z,11.18
2017-05-18T06:44:48.592Z,10.64
2017-05-18T06:47:16.858Z,11.00
2017-05-18T06:49:45.113Z,11.43
2017-05-18T06:52:13.330Z,11.20
2017-05-18T06:54:41.568Z,10.82
2017-05-18T06:57:09.811Z,11.07
2017-05-18T06:59:38.015Z,10.77
2017-05-18T07:02:06.262Z,10.34
2017-05-18T07:04:34.471Z,9.70
2017-05-18T07:07:02.705Z,9.52
2017-05-18T07:09:30.963Z,10.72
2017-05-18T07:11:59.175Z,10.20
2017-05-18T07:14:27.383Z,9.60
2017-05-18T07:16:55.615Z,9.45
2017-05-18T07:19:23.850Z,9.47
2017-05-18T07:21:52.457Z,9.23
2017-05-18T07:24:20.711Z,9.07
2017-05-18T07:26:48.902Z,8.70
2017-05-18T07:29:17.155Z,8.48
2017-05-18T07:31:45.395Z,8.92
2017-05-18T07:34:13.619Z,8.58
2017-05-18T07:36:41.827Z,8.68
2017-05-18T07:39:10.070Z,8.74
2017-05-18T07:41:38.292Z,9.45
2017-05-18T07:44:06.535Z,7.62
2017-05-18T07:46:34.758Z,7.72
2017-05-18T07:49:02.958Z,8.22
2017-05-18T07:51:31.167Z,7.03
2017-05-18T07:53:59.403Z,6.87
2017-05-18T07:56:27.615Z,6.60
2017-05-18T07:58:55.853Z,7.23
2017-05-18T08:01:24.100Z,6.24
2017-05-18T08:03:52.308Z,7.20
2017-05-18T08:06:20.534Z,6.70
2017-05-18T08:08:48.773Z,6.60
2017-05-18T08:11:17.039Z,7.00
2017-05-18T08:13:45.246Z,5.88
2017-05-18T08:16:13.545Z,6.20
2017-05-18T08:18:41.747Z,5.98
2017-05-18T08:21:09.976Z,6.27
2017-05-18T08:23:38.304Z,5.62
2017-05-18T08:26:06.526Z,5.10
2017-05-18T08:28:34.719Z,5.60
2017-05-18T08:31:02.947Z,5.60
2017-05-18T08:33:31.163Z,5.93
2017-05-18T08:35:59.375Z,5.35
2017-05-18T08:38:27.588Z,5.33
2017-05-18T08:40:55.847Z,5.50
2017-05-18T08:43:24.046Z,5.83
2017-05-18T08:45:52.266Z,5.92
2017-05-18T08:48:20.493Z,5.95
2017-05-18T08:50:48.682Z,6.00
2017-05-18T08:53:16.924Z,6.42
2017-05-18T08:55:45.115Z,6.00
2017-05-18T08:58:13.319Z,6.40
2017-05-18T09:00:41.558Z,6.02
2017-05-18T09:03:09.755Z,6.08
2017-05-18T09:05:37.971Z,5.90
2017-05-18T09:08:06.241Z,6.72
2017-05-18T09:10:34.440Z,6.45
2017-05-18T09:13:02.639Z,6.52
2017-05-18T09:15:30.851Z,5.92
2017-05-18T09:17:59.148Z,5.87
2017-05-18T09:20:27.363Z,5.93
2017-05-18T09:22:55.579Z,5.68
2017-05-18T09:25:23.770Z,5.93
2017-05-18T09:27:51.975Z,6.50
2017-05-18T09:30:20.248Z,6.00
2017-05-18T09:32:48.485Z,5.23
2017-05-18T09:35:16.694Z,6.07
2017-05-18T09:37:44.942Z,6.50
2017-05-18T09:40:13.404Z,6.66
2017-05-18T09:42:41.647Z,6.30
2017-05-18T09:45:09.875Z,5.65
2017-05-18T09:47:38.099Z,5.30
2017-05-18T09:50:06.307Z,5.50
2017-05-18T09:52:34.600Z,6.42
2017-05-18T09:55:02.796Z,6.85
2017-05-18T09:57:30.999Z,5.97
2017-05-18T09:59:58.452Z,5.50
2017-05-18T10:02:26.655Z,6.20
2017-05-18T10:04:54.906Z,5.40
2017-05-18T10:07:23.129Z,5.20
2017-05-18T10:09:51.339Z,6.12
2017-05-18T10:12:19.535Z,6.10
2017-05-18T10:14:47.750Z,5.28
2017-05-18T10:17:15.981Z,5.60
2017-05-18T10:19:44.171Z,5.35
2017-05-18T10:22:12.384Z,4.78
2017-05-18T10:24:40.586Z,5.20
2017-05-18T10:27:08.786Z,5.10
2017-05-18T10:29:37.067Z,5.05
2017-05-18T10:32:05.248Z,4.92
2017-05-18T10:34:32.671Z,4.88
2017-05-18T10:37:00.895Z,4.90
2017-05-18T10:39:29.100Z,4.77
2017-05-18T10:41:57.375Z,5.12
2017-05-18T10:44:25.582Z,4.63
2017-05-18T10:46:53.778Z,5.10
2017-05-18T10:49:21.984Z,5.43
2017-05-18T10:51:50.200Z,5.48
2017-05-18T10:54:18.395Z,5.65
2017-05-18T10:56:45.835Z,6.48
2017-05-18T10:59:14.055Z,6.40
2017-05-18T11:01:42.248Z,6.05
2017-05-18T11:04:10.447Z,6.13
2017-05-18T11:06:38.684Z,5.52
2017-05-18T11:09:06.922Z,6.00
2017-05-18T11:11:35.339Z,6.43
2017-05-18T11:14:03.580Z,6.78
2017-05-18T11:16:31.775Z,6.68
2017-05-18T11:18:59.971Z,6.85
2017-05-18T11:21:28.254Z,6.87
2017-05-18T11:23:56.451Z,6.22
2017-05-18T11:26:24.671Z,6.42
2017-05-18T11:28:52.884Z,6.36
2017-05-18T11:31:21.107Z,6.35
2017-05-18T11:33:49.335Z,5.73
2017-05-18T11:36:17.554Z,5.48
2017-05-18T11:38:45.763Z,6.03
2017-05-18T11:41:13.955Z,5.18
2017-05-18T11:43:42.181Z,5.47
2017-05-18T11:46:10.385Z,5.78
2017-05-18T11:48:38.617Z,6.10
2017-05-18T11:51:06.844Z,5.50
2017-05-18T11:53:35.085Z,5.80
2017-05-18T11:56:03.314Z,5.70
2017-05-18T11:58:31.536Z,6.62
2017-05-18T12:00:59.738Z,6.08
2017-05-18T12:03:27.935Z,6.38
2017-05-18T12:05:56.145Z,6.46
2017-05-18T12:08:24.340Z,5.80
2017-05-18T12:10:52.563Z,5.48
2017-05-18T12:13:20.795Z,5.00
2017-05-18T12:15:49.000Z,6.37
2017-05-18T12:18:17.207Z,15.33
2017-05-18T12:20:45.456Z,19.25
2017-05-18T12:23:13.656Z,18.88
2017-05-18T12:25:41.851Z,22.77
2017-05-18T12:28:10.072Z,24.55
2017-05-18T12:30:38.282Z,27.45
2017-05-18T12:33:06.481Z,33.68
2017-05-18T12:35:34.710Z,32.23
2017-05-18T12:38:02.912Z,34.15
2017-05-18T12:40:31.127Z,34.13
2017-05-18T12:42:59.400Z,35.62
2017-05-18T12:45:27.604Z,36.60
2017-05-18T12:47:55.810Z,34.73
2017-05-18T12:50:24.047Z,34.00
2017-05-18T12:52:52.282Z,31.60
2017-05-18T12:55:20.487Z,30.17
2017-05-18T12:57:48.752Z,26.27
2017-05-18T13:00:17.021Z,23.42
2017-05-18T13:02:45.219Z,22.72
2017-05-18T13:05:13.447Z,20.95
2017-05-18T13:07:41.667Z,19.05
2017-05-18T13:10:09.935Z,18.63
2017-05-18T13:12:38.667Z,17.55
2017-05-18T13:15:06.875Z,16.90
2017-05-18T13:17:35.088Z,13.65
2017-05-18T13:20:03.322Z,15.02
2017-05-18T13:22:31.522Z,13.40
2017-05-18T13:24:59.732Z,13.60
2017-05-18T13:27:27.991Z,15.83
2017-05-18T13:29:56.194Z,16.28
2017-05-18T13:32:24.411Z,16.67
2017-05-18T13:34:52.644Z,17.90
2017-05-18T13:37:20.864Z,19.12
2017-05-18T13:39:48.316Z,18.40
2017-05-18T13:42:16.526Z,16.52
2017-05-18T13:44:44.747Z,15.77
2017-05-18T13:47:12.952Z,14.75
2017-05-18T13:49:41.196Z,14.93
2017-05-18T13:52:09.407Z,14.30
2017-05-18T13:54:37.612Z,12.93
2017-05-18T13:57:05.852Z,12.30
2017-05-18T13:59:34.051Z,11.92
2017-05-18T14:02:02.291Z,11.32
2017-05-18T14:04:30.519Z,11.83
2017-05-18T14:06:58.746Z,12.22
2017-05-18T14:09:26.939Z,12.17
2017-05-18T14:11:55.226Z,12.83
2017-05-18T14:14:23.410Z,12.98
2017-05-18T14:16:51.625Z,12.03
2017-05-18T14:19:19.846Z,11.37
2017-05-18T14:21:48.103Z,10.60
2017-05-18T14:24:16.303Z,9.85
2017-05-18T14:26:44.550Z,9.10
2017-05-18T14:29:12.751Z,8.55
2017-05-18T14:31:40.939Z,8.48
2017-05-18T14:34:09.165Z,8.30
2017-05-18T14:36:37.411Z,8.25
2017-05-18T14:39:05.640Z,7.20
2017-05-18T14:41:33.870Z,6.30
2017-05-18T14:44:02.058Z,5.80
2017-05-18T14:46:29.533Z,5.92
2017-05-18T14:48:57.763Z,6.32
2017-05-18T14:51:25.955Z,7.06
2017-05-18T14:53:54.184Z,5.30
2017-05-18T14:56:22.414Z,5.20
2017-05-18T14:58:50.619Z,5.10
2017-05-18T15:01:18.818Z,5.00
2017-05-18T15:03:47.058Z,5.37
2017-05-18T15:06:15.263Z,4.58
2017-05-18T15:08:43.493Z,4.00
2017-05-18T15:11:11.789Z,4.50
2017-05-18T15:13:39.979Z,4.73
2017-05-18T15:16:08.182Z,4.73
2017-05-18T15:18:36.375Z,4.80
2017-05-18T15:21:04.579Z,4.97
2017-05-18T15:23:32.010Z,4.62
2017-05-18T15:26:00.231Z,5.25
2017-05-18T15:28:28.435Z,4.60
2017-05-18T15:30:56.627Z,4.70
2017-05-18T15:33:24.859Z,4.57
2017-05-18T15:35:53.055Z,4.82
2017-05-18T15:38:21.276Z,4.90
2017-05-18T15:40:49.497Z,3.98
2017-05-18T15:43:17.695Z,3.85
2017-05-18T15:45:45.899Z,3.90
2017-05-18T15:48:14.098Z,4.90
2017-05-18T15:50:42.306Z,4.75
2017-05-18T15:53:10.508Z,4.80
2017-05-18T15:55:38.823Z,4.66
2017-05-18T15:58:07.062Z,4.10
2017-05-18T16:00:35.281Z,4.12
2017-05-18T16:03:03.592Z,4.10
2017-05-18T16:05:31.800Z,4.40
2017-05-18T16:08:00.044Z,4.32
2017-05-18T16:10:28.275Z,4.52
2017-05-18T16:12:56.488Z,4.90
2017-05-18T16:15:24.691Z,5.18
2017-05-18T16:17:52.907Z,4.82
2017-05-18T16:20:21.796Z,4.53
2017-05-18T16:22:49.989Z,4.43
2017-05-18T16:25:18.231Z,3.82
2017-05-18T16:27:46.430Z,4.50
2017-05-18T16:30:14.646Z,4.90
2017-05-18T16:32:42.859Z,4.52
2017-05-18T16:35:11.056Z,4.83
2017-05-18T16:37:39.247Z,5.15
2017-05-18T16:40:06.703Z,5.08
2017-05-18T16:42:34.159Z,4.50
2017-05-18T16:45:02.355Z,4.40
2017-05-18T16:47:30.591Z,4.57
2017-05-18T16:49:58.815Z,4.70
2017-05-18T16:52:27.025Z,4.85
2017-05-18T16:54:55.226Z,4.00
2017-05-18T16:57:22.677Z,3.50
2017-05-18T16:59:50.871Z,3.40
2017-05-18T17:02:19.114Z,3.80
2017-05-18T17:04:47.332Z,3.52
2017-05-18T17:07:15.647Z,3.57
2017-05-18T17:09:43.863Z,3.60
2017-05-18T17:12:12.070Z,3.90
2017-05-18T17:14:40.284Z,4.18
2017-05-18T17:17:08.507Z,3.22
2017-05-18T17:19:36.707Z,3.40
2017-05-18T17:22:04.908Z,3.50
2017-05-18T17:24:33.129Z,3.05
2017-05-18T17:27:01.355Z,4.28
2017-05-18T17:29:29.555Z,4.35
2017-05-18T17:31:57.904Z,3.87
2017-05-18T17:34:26.106Z,4.28
2017-05-18T17:36:54.333Z,3.80
2017-05-18T17:39:22.564Z,3.60
2017-05-18T17:41:50.755Z,3.72
2017-05-18T17:44:18.946Z,3.60
2017-05-18T17:46:47.172Z,4.03
2017-05-18T17:49:15.383Z,4.50
2017-05-18T17:51:43.629Z,3.48
2017-05-18T17:54:11.836Z,3.60
2017-05-18T17:56:40.052Z,3.88
2017-05-18T17:59:08.256Z,3.35
2017-05-18T18:01:36.475Z,3.53
2017-05-18T18:04:04.690Z,3.00
2017-05-18T18:06:32.914Z,2.82
2017-05-18T18:09:01.136Z,2.63
2017-05-18T18:11:29.355Z,2.83
2017-05-18T18:13:57.565Z,3.20
2017-05-18T18:16:25.799Z,2.88
2017-05-18T18:18:54.008Z,3.16
2017-05-18T18:21:22.227Z,4.45
2017-05-18T18:23:50.489Z,3.27
2017-05-18T18:26:18.708Z,2.90
2017-05-18T18:28:46.946Z,2.83
2017-05-18T18:31:15.169Z,2.90
2017-05-18T18:33:43.388Z,3.15
2017-05-18T18:36:11.593Z,2.98
2017-05-18T18:38:39.807Z,3.40
2017-05-18T18:41:07.253Z,3.70
2017-05-18T18:43:35.463Z,3.67
2017-05-18T18:46:02.932Z,3.43
2017-05-18T18:48:31.154Z,3.05
2017-05-18T18:50:59.375Z,2.82
2017-05-18T18:53:27.601Z,2.86
2017-05-18T18:55:55.801Z,2.88
2017-05-18T18:58:24.461Z,3.27
2017-05-18T19:00:52.699Z,3.40
2017-05-18T19:03:20.932Z,3.16
2017-05-18T19:05:49.127Z,3.03
2017-05-18T19:08:17.382Z,3.00
2017-05-18T19:10:45.602Z,3.20
2017-05-18T19:13:13.811Z,2.88
2017-05-18T19:15:42.048Z,3.33
2017-05-18T19:18:10.270Z,3.68
2017-05-18T19:20:38.566Z,3.20
2017-05-18T19:23:06.855Z,3.87
2017-05-18T19:25:35.089Z,4.37
2017-05-18T19:28:03.317Z,3.95
2017-05-18T19:30:31.543Z,3.63
2017-05-18T19:32:59.749Z,3.80
2017-05-18T19:35:28.030Z,4.40
2017-05-18T19:37:56.259Z,3.90
2017-05-18T19:40:24.472Z,4.57
2017-05-18T19:42:52.725Z,4.40
2017-05-18T19:45:20.919Z,4.68
2017-05-18T19:47:49.141Z,4.60
2017-05-18T19:50:17.351Z,5.53
2017-05-18T19:52:45.568Z,6.95
2017-05-18T19:55:13.816Z,7.73
2017-05-18T19:57:42.030Z,6.57
2017-05-18T20:00:10.259Z,6.16
2017-05-18T20:02:39.038Z,7.05
2017-05-18T20:05:07.286Z,6.55
2017-05-18T20:07:35.557Z,6.18
2017-05-18T20:10:03.789Z,5.93
2017-05-18T20:12:32.025Z,5.58
2017-05-18T20:15:00.228Z,5.40
2017-05-18T20:17:28.512Z,5.60
2017-05-18T20:19:56.991Z,5.85
2017-05-18T20:22:25.273Z,5.36
2017-05-18T20:24:53.695Z,5.03
2017-05-18T20:27:21.954Z,4.42
2017-05-18T20:29:50.284Z,5.57
2017-05-18T20:32:18.828Z,5.33
2017-05-18T20:34:47.153Z,5.46
2017-05-18T20:37:15.659Z,5.77
2017-05-18T20:39:43.964Z,5.47
2017-05-18T20:42:12.303Z,5.30
2017-05-18T20:44:40.784Z,5.10
2017-05-18T20:47:09.053Z,5.42
2017-05-18T20:49:37.304Z,4.98
2017-05-18T20:52:05.595Z,4.63
2017-05-18T20:54:33.905Z,5.68
2017-05-18T20:57:02.191Z,6.30
2017-05-18T20:59:30.438Z,5.83
2017-05-18T21:01:58.640Z,5.72
2017-05-18T21:04:26.909Z,5.97
2017-05-18T21:06:55.139Z,6.28
2017-05-18T21:09:23.359Z,5.60
2017-05-18T21:11:51.570Z,6.00
2017-05-18T21:14:19.839Z,5.85
2017-05-18T21:16:48.050Z,6.25
2017-05-18T21:19:16.256Z,6.00
2017-05-18T21:21:44.500Z,6.20
2017-05-18T21:24:12.705Z,5.92
2017-05-18T21:26:40.902Z,6.60
2017-05-18T21:29:09.121Z,5.95
2017-05-18T21:31:38.243Z,5.65
2017-05-18T21:34:06.426Z,5.78
2017-05-18T21:36:34.639Z,7.00
2017-05-18T21:39:02.836Z,6.22
2017-05-18T21:41:31.039Z,6.57
2017-05-18T21:43:59.250Z,6.30
2017-05-18T21:46:27.447Z,6.70
2017-05-18T21:48:55.667Z,6.60
2017-05-18T21:51:23.859Z,7.20
2017-05-18T21:53:52.122Z,6.77
2017-05-18T21:56:20.339Z,6.53
2017-05-18T21:58:48.560Z,7.57
2017-05-18T22:01:16.759Z,7.67
2017-05-18T22:03:44.965Z,8.03
2017-05-18T22:06:13.180Z,7.63
2017-05-18T22:08:41.376Z,7.24
2017-05-18T22:11:09.611Z,8.50
2017-05-18T22:13:37.824Z,7.87
2017-05-18T22:16:06.026Z,8.87
2017-05-18T22:18:34.230Z,8.38
2017-05-18T22:21:02.435Z,7.53
2017-05-18T22:23:30.654Z,7.70
2017-05-18T22:25:58.871Z,8.25
2017-05-18T22:28:27.081Z,7.45
2017-05-18T22:30:55.291Z,8.06
2017-05-18T22:33:23.501Z,8.17
2017-05-18T22:35:51.702Z,8.62
2017-05-18T22:38:19.903Z,8.83
2017-05-18T22:40:48.142Z,9.17
2017-05-18T22:43:16.339Z,8.38
2017-05-18T22:45:44.540Z,8.42
2017-05-18T22:48:12.740Z,8.84
2017-05-18T22:50:40.979Z,9.33
2017-05-18T22:53:09.177Z,9.80
2017-05-18T22:55:37.366Z,9.13
2017-05-18T22:58:05.591Z,9.63
2017-05-18T23:00:33.798Z,9.97
2017-05-18T23:03:02.015Z,10.77
2017-05-18T23:05:30.223Z,10.58
2017-05-18T23:07:58.435Z,10.78
2017-05-18T23:10:26.657Z,11.33
2017-05-18T23:12:54.867Z,11.43
2017-05-18T23:15:23.084Z,11.74
2017-05-18T23:17:51.293Z,11.27
2017-05-18T23:20:20.541Z,11.50
2017-05-18T23:22:48.759Z,11.00
2017-05-18T23:25:16.970Z,11.73
2017-05-18T23:27:45.185Z,11.40
2017-05-18T23:30:13.410Z,11.67
2017-05-18T23:32:41.626Z,11.38
2017-05-18T23:35:09.065Z,11.78
2017-05-18T23:37:37.280Z,12.17
2017-05-18T23:40:05.517Z,10.92
2017-05-18T23:42:33.734Z,10.95
2017-05-18T23:45:01.956Z,11.95
2017-05-18T23:47:30.178Z,10.85
2017-05-18T23:49:58.371Z,11.20
2017-05-18T23:52:26.594Z,10.98
2017-05-18T23:54:54.793Z,10.62
2017-05-18T23:57:22.992Z,11.02
2017-05-18T23:59:51.215Z,10.85
